sensor_id;sensor_type;location;lat;lon;timestamp;temperature;humidity
11577;DHT22;5844;51.496;6.788;2022-11-21T00:00:23;4.60;99.90
11577;DHT22;5844;51.496;6.788;2022-11-21T00:02:49;4.60;99.90
11577;DHT22;5844;51.496;6.788;2022-11-21T00:05:15;4.50;99.90
11577;DHT22;5844;51.496;6.788;2022-11-21T00:07:41;4.50;99.90
11577;DHT22;5844;51.496;6.788;2022-11-21T00:10:06;4.40;99.90
11577;DHT22;5844;51.496;6.788;2022-11-21T00:12:32;4.40;99.90
11577;DHT22;5844;51.496;6.788;2022-11-21T00:14:58;4.40;99.90
11577;DHT22;5844;51.496;6.788;2022-11-21T00:17:23;4.40;99.90
11577;DHT22;5844;51.496;6.788;2022-11-21T00:19:49;4.30;99.90
11577;DHT22;5844;51.496;6.788;2022-11-21T00:22:15;4.40;99.90
11577;DHT22;5844;51.496;6.788;2022-11-21T00:24:40;4.30;99.90
11577;DHT22;5844;51.496;6.788;2022-11-21T00:27:06;4.40;99.90
11577;DHT22;5844;51.496;6.788;2022-11-21T00:29:31;4.30;99.90
11577;DHT22;5844;51.496;6.788;2022-11-21T00:31:57;4.40;99.90
11577;DHT22;5844;51.496;6.788;2022-11-21T00:34:23;4.30;99.90
11577;DHT22;5844;51.496;6.788;2022-11-21T00:36:48;4.40;99.90
11577;DHT22;5844;51.496;6.788;2022-11-21T00:39:14;4.30;99.90
11577;DHT22;5844;51.496;6.788;2022-11-21T00:41:39;4.40;99.90
11577;DHT22;5844;51.496;6.788;2022-11-21T00:44:06;4.40;99.90
11577;DHT22;5844;51.496;6.788;2022-11-21T00:46:31;4.40;99.90
11577;DHT22;5844;51.496;6.788;2022-11-21T00:48:57;4.40;99.90
11577;DHT22;5844;51.496;6.788;2022-11-21T00:51:23;4.40;99.90
11577;DHT22;5844;51.496;6.788;2022-11-21T00:53:48;4.40;99.90
11577;DHT22;5844;51.496;6.788;2022-11-21T00:56:14;4.40;99.90
11577;DHT22;5844;51.496;6.788;2022-11-21T00:58:41;4.30;99.90
11577;DHT22;5844;51.496;6.788;2022-11-21T01:01:10;4.30;99.90
11577;DHT22;5844;51.496;6.788;2022-11-21T01:03:37;4.30;99.90
11577;DHT22;5844;51.496;6.788;2022-11-21T01:06:07;4.30;99.90
11577;DHT22;5844;51.496;6.788;2022-11-21T01:08:34;4.30;99.90
11577;DHT22;5844;51.496;6.788;2022-11-21T01:11:02;4.30;99.90
11577;DHT22;5844;51.496;6.788;2022-11-21T01:13:28;4.30;99.90
11577;DHT22;5844;51.496;6.788;2022-11-21T01:15:54;4.40;99.90
11577;DHT22;5844;51.496;6.788;2022-11-21T01:18:19;4.40;99.90
11577;DHT22;5844;51.496;6.788;2022-11-21T01:20:45;4.50;99.90
11577;DHT22;5844;51.496;6.788;2022-11-21T01:23:10;4.30;99.90
11577;DHT22;5844;51.496;6.788;2022-11-21T01:25:36;4.30;99.90
11577;DHT22;5844;51.496;6.788;2022-11-21T01:28:02;4.30;99.90
11577;DHT22;5844;51.496;6.788;2022-11-21T01:30:27;4.30;99.90
11577;DHT22;5844;51.496;6.788;2022-11-21T01:32:53;4.30;99.90
11577;DHT22;5844;51.496;6.788;2022-11-21T01:35:19;4.30;99.90
11577;DHT22;5844;51.496;6.788;2022-11-21T01:37:48;4.20;99.90
11577;DHT22;5844;51.496;6.788;2022-11-21T01:40:14;4.30;99.90
11577;DHT22;5844;51.496;6.788;2022-11-21T01:42:52;4.20;99.90
11577;DHT22;5844;51.496;6.788;2022-11-21T01:56:55;4.20;99.90
11577;DHT22;5844;51.496;6.788;2022-11-21T02:02:03;4.20;99.90
11577;DHT22;5844;51.496;6.788;2022-11-21T02:04:31;4.20;99.90
11577;DHT22;5844;51.496;6.788;2022-11-21T02:06:59;4.20;99.90
11577;DHT22;5844;51.496;6.788;2022-11-21T02:09:26;4.20;99.90
11577;DHT22;5844;51.496;6.788;2022-11-21T02:12:06;4.20;99.90
11577;DHT22;5844;51.496;6.788;2022-11-21T02:14:33;4.20;99.90
11577;DHT22;5844;51.496;6.788;2022-11-21T02:17:02;4.10;99.90
11577;DHT22;5844;51.496;6.788;2022-11-21T02:19:55;4.40;99.90
11577;DHT22;5844;51.496;6.788;2022-11-21T02:25:13;4.00;99.90
11577;DHT22;5844;51.496;6.788;2022-11-21T02:27:39;4.00;99.90
11577;DHT22;5844;51.496;6.788;2022-11-21T02:30:07;4.10;99.90
11577;DHT22;5844;51.496;6.788;2022-11-21T02:32:37;4.10;99.90
11577;DHT22;5844;51.496;6.788;2022-11-21T02:35:04;4.10;99.90
11577;DHT22;5844;51.496;6.788;2022-11-21T02:37:30;4.10;99.90
11577;DHT22;5844;51.496;6.788;2022-11-21T02:39:59;4.10;99.90
11577;DHT22;5844;51.496;6.788;2022-11-21T02:45:25;4.30;99.90
11577;DHT22;5844;51.496;6.788;2022-11-21T02:47:55;4.30;99.90
11577;DHT22;5844;51.496;6.788;2022-11-21T02:52:53;4.20;99.90
11577;DHT22;5844;51.496;6.788;2022-11-21T02:55:20;4.40;99.90
11577;DHT22;5844;51.496;6.788;2022-11-21T02:57:45;4.10;99.90
11577;DHT22;5844;51.496;6.788;2022-11-21T03:00:11;4.10;99.90
11577;DHT22;5844;51.496;6.788;2022-11-21T03:02:37;4.10;99.90
11577;DHT22;5844;51.496;6.788;2022-11-21T03:05:05;4.10;99.90
11577;DHT22;5844;51.496;6.788;2022-11-21T03:07:31;4.10;99.90
11577;DHT22;5844;51.496;6.788;2022-11-21T03:09:56;4.10;99.90
11577;DHT22;5844;51.496;6.788;2022-11-21T03:12:22;4.10;99.90
11577;DHT22;5844;51.496;6.788;2022-11-21T03:14:48;4.10;99.90
11577;DHT22;5844;51.496;6.788;2022-11-21T03:17:13;4.00;99.90
11577;DHT22;5844;51.496;6.788;2022-11-21T03:19:39;4.30;99.90
11577;DHT22;5844;51.496;6.788;2022-11-21T03:22:05;4.00;99.90
11577;DHT22;5844;51.496;6.788;2022-11-21T03:24:30;4.20;99.90
11577;DHT22;5844;51.496;6.788;2022-11-21T03:26:56;4.00;99.90
11577;DHT22;5844;51.496;6.788;2022-11-21T03:29:22;4.10;99.90
11577;DHT22;5844;51.496;6.788;2022-11-21T03:31:47;4.10;99.90
11577;DHT22;5844;51.496;6.788;2022-11-21T03:34:13;4.10;99.90
11577;DHT22;5844;51.496;6.788;2022-11-21T03:36:39;4.30;99.90
11577;DHT22;5844;51.496;6.788;2022-11-21T03:39:04;4.10;99.90
11577;DHT22;5844;51.496;6.788;2022-11-21T03:41:30;4.00;99.90
11577;DHT22;5844;51.496;6.788;2022-11-21T03:44:02;4.10;99.90
11577;DHT22;5844;51.496;6.788;2022-11-21T03:46:30;4.00;99.90
11577;DHT22;5844;51.496;6.788;2022-11-21T03:48:55;4.00;99.90
11577;DHT22;5844;51.496;6.788;2022-11-21T03:51:21;4.20;99.90
11577;DHT22;5844;51.496;6.788;2022-11-21T03:53:48;4.10;99.90
11577;DHT22;5844;51.496;6.788;2022-11-21T03:56:14;4.10;99.90
11577;DHT22;5844;51.496;6.788;2022-11-21T03:58:40;4.10;99.90
11577;DHT22;5844;51.496;6.788;2022-11-21T04:01:06;4.20;99.90
11577;DHT22;5844;51.496;6.788;2022-11-21T04:03:31;4.10;99.90
11577;DHT22;5844;51.496;6.788;2022-11-21T04:05:57;4.10;99.90
11577;DHT22;5844;51.496;6.788;2022-11-21T04:08:23;4.00;99.90
11577;DHT22;5844;51.496;6.788;2022-11-21T04:10:50;3.90;99.90
11577;DHT22;5844;51.496;6.788;2022-11-21T04:13:16;4.00;99.90
11577;DHT22;5844;51.496;6.788;2022-11-21T04:15:44;3.90;99.90
11577;DHT22;5844;51.496;6.788;2022-11-21T04:18:10;3.90;99.90
11577;DHT22;5844;51.496;6.788;2022-11-21T04:20:36;3.90;99.90
11577;DHT22;5844;51.496;6.788;2022-11-21T04:23:14;3.90;99.90
11577;DHT22;5844;51.496;6.788;2022-11-21T04:25:59;3.90;99.90
11577;DHT22;5844;51.496;6.788;2022-11-21T04:28:24;3.90;99.90
11577;DHT22;5844;51.496;6.788;2022-11-21T04:30:50;3.90;99.90
11577;DHT22;5844;51.496;6.788;2022-11-21T04:33:16;4.00;99.90
11577;DHT22;5844;51.496;6.788;2022-11-21T04:35:43;4.00;99.90
11577;DHT22;5844;51.496;6.788;2022-11-21T04:38:09;4.00;99.90
11577;DHT22;5844;51.496;6.788;2022-11-21T04:40:35;4.00;99.90
11577;DHT22;5844;51.496;6.788;2022-11-21T04:43:01;4.00;99.90
11577;DHT22;5844;51.496;6.788;2022-11-21T04:45:27;4.10;99.90
11577;DHT22;5844;51.496;6.788;2022-11-21T04:47:52;4.00;99.90
11577;DHT22;5844;51.496;6.788;2022-11-21T04:50:19;4.10;99.90
11577;DHT22;5844;51.496;6.788;2022-11-21T04:52:52;4.10;99.90
11577;DHT22;5844;51.496;6.788;2022-11-21T04:55:18;4.10;99.90
11577;DHT22;5844;51.496;6.788;2022-11-21T04:57:45;4.10;99.90
11577;DHT22;5844;51.496;6.788;2022-11-21T05:00:12;4.10;99.90
11577;DHT22;5844;51.496;6.788;2022-11-21T05:02:38;4.10;99.90
11577;DHT22;5844;51.496;6.788;2022-11-21T05:05:04;4.10;99.90
11577;DHT22;5844;51.496;6.788;2022-11-21T05:07:29;4.10;99.90
11577;DHT22;5844;51.496;6.788;2022-11-21T05:09:55;4.20;99.90
11577;DHT22;5844;51.496;6.788;2022-11-21T05:12:21;4.20;99.90
11577;DHT22;5844;51.496;6.788;2022-11-21T05:15:05;4.20;99.90
11577;DHT22;5844;51.496;6.788;2022-11-21T05:17:30;4.20;99.90
11577;DHT22;5844;51.496;6.788;2022-11-21T05:19:56;4.10;99.90
11577;DHT22;5844;51.496;6.788;2022-11-21T05:22:22;4.10;99.90
11577;DHT22;5844;51.496;6.788;2022-11-21T05:24:47;4.10;99.90
11577;DHT22;5844;51.496;6.788;2022-11-21T05:27:13;4.20;99.90
11577;DHT22;5844;51.496;6.788;2022-11-21T05:29:39;4.10;99.90
11577;DHT22;5844;51.496;6.788;2022-11-21T05:32:04;4.20;99.90
11577;DHT22;5844;51.496;6.788;2022-11-21T05:34:30;4.20;99.90
11577;DHT22;5844;51.496;6.788;2022-11-21T05:36:55;4.30;99.90
11577;DHT22;5844;51.496;6.788;2022-11-21T05:39:24;4.30;99.90
11577;DHT22;5844;51.496;6.788;2022-11-21T05:41:50;4.30;99.90
11577;DHT22;5844;51.496;6.788;2022-11-21T05:44:16;4.30;99.90
11577;DHT22;5844;51.496;6.788;2022-11-21T05:46:42;4.20;99.90
11577;DHT22;5844;51.496;6.788;2022-11-21T05:49:07;4.20;99.90
11577;DHT22;5844;51.496;6.788;2022-11-21T05:51:33;4.30;99.90
11577;DHT22;5844;51.496;6.788;2022-11-21T05:53:59;4.30;99.90
11577;DHT22;5844;51.496;6.788;2022-11-21T05:56:25;4.30;99.90
11577;DHT22;5844;51.496;6.788;2022-11-21T05:58:53;4.30;99.90
11577;DHT22;5844;51.496;6.788;2022-11-21T06:01:18;4.70;99.90
11577;DHT22;5844;51.496;6.788;2022-11-21T06:04:04;4.40;99.90
11577;DHT22;5844;51.496;6.788;2022-11-21T06:06:30;4.40;99.90
11577;DHT22;5844;51.496;6.788;2022-11-21T06:08:55;4.40;99.90
11577;DHT22;5844;51.496;6.788;2022-11-21T06:11:21;4.40;99.90
11577;DHT22;5844;51.496;6.788;2022-11-21T06:13:46;4.30;99.90
11577;DHT22;5844;51.496;6.788;2022-11-21T06:16:14;4.60;99.90
11577;DHT22;5844;51.496;6.788;2022-11-21T06:18:44;4.40;99.90
11577;DHT22;5844;51.496;6.788;2022-11-21T06:21:15;4.40;99.90
11577;DHT22;5844;51.496;6.788;2022-11-21T06:23:41;4.40;99.90
11577;DHT22;5844;51.496;6.788;2022-11-21T06:26:10;4.40;99.90
11577;DHT22;5844;51.496;6.788;2022-11-21T06:28:38;4.40;99.90
11577;DHT22;5844;51.496;6.788;2022-11-21T06:31:11;4.40;99.90
11577;DHT22;5844;51.496;6.788;2022-11-21T06:33:38;4.40;99.90
11577;DHT22;5844;51.496;6.788;2022-11-21T06:36:12;4.40;99.90
11577;DHT22;5844;51.496;6.788;2022-11-21T06:38:38;4.40;99.90
11577;DHT22;5844;51.496;6.788;2022-11-21T06:41:12;4.40;99.90
11577;DHT22;5844;51.496;6.788;2022-11-21T06:43:38;4.40;99.90
11577;DHT22;5844;51.496;6.788;2022-11-21T06:46:04;4.50;99.90
11577;DHT22;5844;51.496;6.788;2022-11-21T06:48:31;4.50;99.90
11577;DHT22;5844;51.496;6.788;2022-11-21T06:50:57;4.90;99.90
11577;DHT22;5844;51.496;6.788;2022-11-21T06:53:23;4.50;99.90
11577;DHT22;5844;51.496;6.788;2022-11-21T06:55:49;4.60;99.90
11577;DHT22;5844;51.496;6.788;2022-11-21T06:58:15;4.60;99.90
11577;DHT22;5844;51.496;6.788;2022-11-21T07:00:40;4.50;99.90
11577;DHT22;5844;51.496;6.788;2022-11-21T07:03:06;4.50;99.90
11577;DHT22;5844;51.496;6.788;2022-11-21T07:05:32;4.50;99.90
11577;DHT22;5844;51.496;6.788;2022-11-21T07:08:01;4.60;99.90
11577;DHT22;5844;51.496;6.788;2022-11-21T07:10:28;4.60;99.90
11577;DHT22;5844;51.496;6.788;2022-11-21T07:12:58;4.70;99.90
11577;DHT22;5844;51.496;6.788;2022-11-21T07:15:44;4.70;99.90
11577;DHT22;5844;51.496;6.788;2022-11-21T07:18:11;4.70;99.90
11577;DHT22;5844;51.496;6.788;2022-11-21T07:20:37;4.70;99.90
11577;DHT22;5844;51.496;6.788;2022-11-21T07:23:02;4.70;99.90
11577;DHT22;5844;51.496;6.788;2022-11-21T07:25:29;4.80;99.90
11577;DHT22;5844;51.496;6.788;2022-11-21T07:27:57;4.80;99.90
11577;DHT22;5844;51.496;6.788;2022-11-21T07:30:23;4.90;99.90
11577;DHT22;5844;51.496;6.788;2022-11-21T07:32:56;4.80;99.90
11577;DHT22;5844;51.496;6.788;2022-11-21T07:35:22;4.80;99.90
11577;DHT22;5844;51.496;6.788;2022-11-21T07:37:48;4.90;99.90
11577;DHT22;5844;51.496;6.788;2022-11-21T07:40:13;4.90;99.90
11577;DHT22;5844;51.496;6.788;2022-11-21T07:42:39;5.00;99.90
11577;DHT22;5844;51.496;6.788;2022-11-21T07:45:05;5.00;99.90
11577;DHT22;5844;51.496;6.788;2022-11-21T07:47:31;4.90;99.90
11577;DHT22;5844;51.496;6.788;2022-11-21T07:49:57;4.90;99.90
11577;DHT22;5844;51.496;6.788;2022-11-21T07:52:22;4.90;99.90
11577;DHT22;5844;51.496;6.788;2022-11-21T07:54:48;4.90;99.90
11577;DHT22;5844;51.496;6.788;2022-11-21T07:57:13;5.00;99.90
11577;DHT22;5844;51.496;6.788;2022-11-21T07:59:39;5.10;99.90
11577;DHT22;5844;51.496;6.788;2022-11-21T08:02:05;5.10;99.90
11577;DHT22;5844;51.496;6.788;2022-11-21T08:04:30;5.20;99.90
11577;DHT22;5844;51.496;6.788;2022-11-21T08:06:56;5.20;99.90
11577;DHT22;5844;51.496;6.788;2022-11-21T08:09:22;5.20;99.90
11577;DHT22;5844;51.496;6.788;2022-11-21T08:11:47;5.30;99.90
11577;DHT22;5844;51.496;6.788;2022-11-21T08:14:13;5.30;99.90
11577;DHT22;5844;51.496;6.788;2022-11-21T08:16:38;5.30;99.90
11577;DHT22;5844;51.496;6.788;2022-11-21T08:19:04;5.30;99.90
11577;DHT22;5844;51.496;6.788;2022-11-21T08:21:30;5.40;99.90
11577;DHT22;5844;51.496;6.788;2022-11-21T08:23:56;5.40;99.90
11577;DHT22;5844;51.496;6.788;2022-11-21T08:26:22;5.40;99.90
11577;DHT22;5844;51.496;6.788;2022-11-21T08:28:47;5.40;99.90
11577;DHT22;5844;51.496;6.788;2022-11-21T08:31:13;5.50;99.90
11577;DHT22;5844;51.496;6.788;2022-11-21T08:33:39;5.50;99.90
11577;DHT22;5844;51.496;6.788;2022-11-21T08:36:05;5.50;99.90
11577;DHT22;5844;51.496;6.788;2022-11-21T08:38:31;5.60;99.90
11577;DHT22;5844;51.496;6.788;2022-11-21T08:40:57;5.60;99.90
11577;DHT22;5844;51.496;6.788;2022-11-21T08:43:42;5.60;99.90
11577;DHT22;5844;51.496;6.788;2022-11-21T08:46:07;5.70;99.90
11577;DHT22;5844;51.496;6.788;2022-11-21T08:48:33;5.80;99.90
11577;DHT22;5844;51.496;6.788;2022-11-21T08:50:59;5.80;99.90
11577;DHT22;5844;51.496;6.788;2022-11-21T08:53:25;5.80;99.90
11577;DHT22;5844;51.496;6.788;2022-11-21T08:55:50;5.80;99.90
11577;DHT22;5844;51.496;6.788;2022-11-21T08:58:18;5.90;99.90
11577;DHT22;5844;51.496;6.788;2022-11-21T09:00:43;5.90;99.90
11577;DHT22;5844;51.496;6.788;2022-11-21T09:03:09;5.90;99.90
11577;DHT22;5844;51.496;6.788;2022-11-21T09:05:34;6.00;99.90
11577;DHT22;5844;51.496;6.788;2022-11-21T09:08:00;6.00;99.90
11577;DHT22;5844;51.496;6.788;2022-11-21T09:10:26;6.10;99.90
11577;DHT22;5844;51.496;6.788;2022-11-21T09:12:52;6.00;99.90
11577;DHT22;5844;51.496;6.788;2022-11-21T09:15:18;6.10;99.90
11577;DHT22;5844;51.496;6.788;2022-11-21T09:18:02;6.10;99.90
11577;DHT22;5844;51.496;6.788;2022-11-21T09:20:32;6.20;99.90
11577;DHT22;5844;51.496;6.788;2022-11-21T09:23:10;6.20;99.90
11577;DHT22;5844;51.496;6.788;2022-11-21T09:25:37;6.20;99.90
11577;DHT22;5844;51.496;6.788;2022-11-21T09:28:04;6.20;99.90
11577;DHT22;5844;51.496;6.788;2022-11-21T09:30:30;6.20;99.90
11577;DHT22;5844;51.496;6.788;2022-11-21T09:33:06;6.30;99.90
11577;DHT22;5844;51.496;6.788;2022-11-21T09:35:32;6.30;99.90
11577;DHT22;5844;51.496;6.788;2022-11-21T09:37:58;6.30;99.90
11577;DHT22;5844;51.496;6.788;2022-11-21T09:40:24;6.40;99.90
11577;DHT22;5844;51.496;6.788;2022-11-21T09:45:51;6.60;99.90
11577;DHT22;5844;51.496;6.788;2022-11-21T09:51:12;6.70;99.90
11577;DHT22;5844;51.496;6.788;2022-11-21T09:54:06;6.80;99.90
11577;DHT22;5844;51.496;6.788;2022-11-21T09:56:38;6.90;99.90
11577;DHT22;5844;51.496;6.788;2022-11-21T09:59:34;7.20;99.90
11577;DHT22;5844;51.496;6.788;2022-11-21T10:02:00;7.40;99.90
11577;DHT22;5844;51.496;6.788;2022-11-21T10:04:26;7.60;99.90
11577;DHT22;5844;51.496;6.788;2022-11-21T10:07:02;7.60;99.90
11577;DHT22;5844;51.496;6.788;2022-11-21T10:23:51;7.90;99.90
11577;DHT22;5844;51.496;6.788;2022-11-21T10:31:47;7.90;99.90
11577;DHT22;5844;51.496;6.788;2022-11-21T10:34:21;8.00;99.90
11577;DHT22;5844;51.496;6.788;2022-11-21T10:36:54;7.80;99.90
11577;DHT22;5844;51.496;6.788;2022-11-21T10:39:44;7.70;99.90
11577;DHT22;5844;51.496;6.788;2022-11-21T10:44:58;8.00;99.90
11577;DHT22;5844;51.496;6.788;2022-11-21T10:47:46;8.10;99.90
11577;DHT22;5844;51.496;6.788;2022-11-21T10:50:45;8.20;99.90
11577;DHT22;5844;51.496;6.788;2022-11-21T10:53:17;8.50;99.90
11577;DHT22;5844;51.496;6.788;2022-11-21T10:56:15;8.50;99.90
11577;DHT22;5844;51.496;6.788;2022-11-21T10:58:44;8.50;99.90
11577;DHT22;5844;51.496;6.788;2022-11-21T11:06:41;9.10;99.90
11577;DHT22;5844;51.496;6.788;2022-11-21T11:09:28;9.30;99.90
11577;DHT22;5844;51.496;6.788;2022-11-21T11:12:28;9.10;99.90
11577;DHT22;5844;51.496;6.788;2022-11-21T11:15:23;9.00;99.90
11577;DHT22;5844;51.496;6.788;2022-11-21T11:18:34;8.60;99.90
11577;DHT22;5844;51.496;6.788;2022-11-21T11:20:43;8.50;99.90
11577;DHT22;5844;51.496;6.788;2022-11-21T11:23:24;8.40;99.90
11577;DHT22;5844;51.496;6.788;2022-11-21T11:25:57;8.40;99.90
11577;DHT22;5844;51.496;6.788;2022-11-21T11:28:24;8.40;99.90
11577;DHT22;5844;51.496;6.788;2022-11-21T11:30:54;8.40;99.90
11577;DHT22;5844;51.496;6.788;2022-11-21T11:38:33;8.60;99.90
11577;DHT22;5844;51.496;6.788;2022-11-21T11:41:04;8.60;99.90
11577;DHT22;5844;51.496;6.788;2022-11-21T11:46:56;8.60;99.90
11577;DHT22;5844;51.496;6.788;2022-11-21T11:50:01;8.50;99.90
11577;DHT22;5844;51.496;6.788;2022-11-21T11:52:49;8.40;99.90
11577;DHT22;5844;51.496;6.788;2022-11-21T11:55:38;8.50;99.90
11577;DHT22;5844;51.496;6.788;2022-11-21T12:00:47;8.40;99.90
11577;DHT22;5844;51.496;6.788;2022-11-21T12:03:30;8.50;99.90
11577;DHT22;5844;51.496;6.788;2022-11-21T12:06:08;8.50;99.90
11577;DHT22;5844;51.496;6.788;2022-11-21T12:08:53;8.60;99.90
11577;DHT22;5844;51.496;6.788;2022-11-21T12:11:31;8.60;99.90
11577;DHT22;5844;51.496;6.788;2022-11-21T12:14:53;8.50;99.90
11577;DHT22;5844;51.496;6.788;2022-11-21T12:23:19;8.60;99.90
11577;DHT22;5844;51.496;6.788;2022-11-21T12:31:23;8.90;99.90
11577;DHT22;5844;51.496;6.788;2022-11-21T12:34:01;9.10;99.90
11577;DHT22;5844;51.496;6.788;2022-11-21T12:42:01;9.60;99.90
11577;DHT22;5844;51.496;6.788;2022-11-21T12:48:43;9.60;99.90
11577;DHT22;5844;51.496;6.788;2022-11-21T12:57:20;10.50;99.90
11577;DHT22;5844;51.496;6.788;2022-11-21T13:03:42;10.50;99.90
11577;DHT22;5844;51.496;6.788;2022-11-21T13:06:30;10.20;99.90
11577;DHT22;5844;51.496;6.788;2022-11-21T13:08:59;10.00;99.90
11577;DHT22;5844;51.496;6.788;2022-11-21T13:11:43;9.80;99.90
11577;DHT22;5844;51.496;6.788;2022-11-21T13:25:10;9.40;99.90
11577;DHT22;5844;51.496;6.788;2022-11-21T13:27:40;9.40;99.90
11577;DHT22;5844;51.496;6.788;2022-11-21T13:32:43;9.40;99.90
11577;DHT22;5844;51.496;6.788;2022-11-21T13:45:43;9.70;99.90
11577;DHT22;5844;51.496;6.788;2022-11-21T14:01:51;9.60;99.90
11577;DHT22;5844;51.496;6.788;2022-11-21T14:07:32;9.70;99.90
11577;DHT22;5844;51.496;6.788;2022-11-21T14:10:28;9.60;99.90
11577;DHT22;5844;51.496;6.788;2022-11-21T14:12:50;9.50;99.90
11577;DHT22;5844;51.496;6.788;2022-11-21T14:17:48;9.40;99.90
11577;DHT22;5844;51.496;6.788;2022-11-21T14:20:24;9.40;99.90
11577;DHT22;5844;51.496;6.788;2022-11-21T14:23:04;9.40;99.90
11577;DHT22;5844;51.496;6.788;2022-11-21T14:28:13;9.30;99.90
11577;DHT22;5844;51.496;6.788;2022-11-21T14:30:42;9.30;99.90
11577;DHT22;5844;51.496;6.788;2022-11-21T14:33:24;9.30;99.90
11577;DHT22;5844;51.496;6.788;2022-11-21T14:38:29;9.10;99.90
11577;DHT22;5844;51.496;6.788;2022-11-21T14:46:38;8.70;99.90
11577;DHT22;5844;51.496;6.788;2022-11-21T14:49:24;8.60;99.90
11577;DHT22;5844;51.496;6.788;2022-11-21T14:52:14;8.50;99.90
11577;DHT22;5844;51.496;6.788;2022-11-21T14:54:52;8.50;99.90
11577;DHT22;5844;51.496;6.788;2022-11-21T14:57:29;8.40;99.90
11577;DHT22;5844;51.496;6.788;2022-11-21T14:59:57;8.20;99.90
11577;DHT22;5844;51.496;6.788;2022-11-21T15:02:25;8.10;99.90
11577;DHT22;5844;51.496;6.788;2022-11-21T15:04:52;8.00;99.90
11577;DHT22;5844;51.496;6.788;2022-11-21T15:07:26;7.90;99.90
11577;DHT22;5844;51.496;6.788;2022-11-21T15:09:52;7.80;99.90
11577;DHT22;5844;51.496;6.788;2022-11-21T15:12:36;7.70;99.90
11577;DHT22;5844;51.496;6.788;2022-11-21T15:15:34;7.60;99.90
11577;DHT22;5844;51.496;6.788;2022-11-21T15:18:02;7.60;99.90
11577;DHT22;5844;51.496;6.788;2022-11-21T15:20:29;7.50;99.90
11577;DHT22;5844;51.496;6.788;2022-11-21T15:22:57;7.50;99.90
11577;DHT22;5844;51.496;6.788;2022-11-21T15:25:28;7.40;99.90
11577;DHT22;5844;51.496;6.788;2022-11-21T15:30:31;7.30;99.90
11577;DHT22;5844;51.496;6.788;2022-11-21T15:38:29;7.10;99.90
11577;DHT22;5844;51.496;6.788;2022-11-21T15:43:40;7.00;99.90
11577;DHT22;5844;51.496;6.788;2022-11-21T15:46:26;7.00;99.90
11577;DHT22;5844;51.496;6.788;2022-11-21T15:49:03;7.00;99.90
11577;DHT22;5844;51.496;6.788;2022-11-21T15:51:37;7.00;99.90
11577;DHT22;5844;51.496;6.788;2022-11-21T15:54:05;7.00;99.90
11577;DHT22;5844;51.496;6.788;2022-11-21T15:56:31;6.90;99.90
11577;DHT22;5844;51.496;6.788;2022-11-21T15:58:57;6.90;99.90
11577;DHT22;5844;51.496;6.788;2022-11-21T16:01:25;6.90;99.90
11577;DHT22;5844;51.496;6.788;2022-11-21T16:03:54;6.90;99.90
11577;DHT22;5844;51.496;6.788;2022-11-21T16:06:20;6.90;99.90
11577;DHT22;5844;51.496;6.788;2022-11-21T16:08:46;7.00;99.90
11577;DHT22;5844;51.496;6.788;2022-11-21T16:11:19;7.00;99.90
11577;DHT22;5844;51.496;6.788;2022-11-21T16:13:49;7.00;99.90
11577;DHT22;5844;51.496;6.788;2022-11-21T16:16:15;7.00;99.90
11577;DHT22;5844;51.496;6.788;2022-11-21T16:18:41;7.00;99.90
11577;DHT22;5844;51.496;6.788;2022-11-21T16:21:08;7.00;99.90
11577;DHT22;5844;51.496;6.788;2022-11-21T16:23:33;7.10;99.90
11577;DHT22;5844;51.496;6.788;2022-11-21T16:26:00;7.10;99.90
11577;DHT22;5844;51.496;6.788;2022-11-21T16:28:25;7.30;99.90
11577;DHT22;5844;51.496;6.788;2022-11-21T16:30:51;7.10;99.90
11577;DHT22;5844;51.496;6.788;2022-11-21T16:33:17;7.10;99.90
11577;DHT22;5844;51.496;6.788;2022-11-21T16:35:43;7.00;99.90
11577;DHT22;5844;51.496;6.788;2022-11-21T16:38:09;7.10;99.90
11577;DHT22;5844;51.496;6.788;2022-11-21T16:40:35;7.10;99.90
11577;DHT22;5844;51.496;6.788;2022-11-21T16:43:12;7.20;99.90
11577;DHT22;5844;51.496;6.788;2022-11-21T16:45:38;7.20;99.90
11577;DHT22;5844;51.496;6.788;2022-11-21T16:48:04;7.20;99.90
11577;DHT22;5844;51.496;6.788;2022-11-21T16:50:31;7.10;99.90
11577;DHT22;5844;51.496;6.788;2022-11-21T16:52:56;7.20;99.90
11577;DHT22;5844;51.496;6.788;2022-11-21T16:55:22;7.20;99.90
11577;DHT22;5844;51.496;6.788;2022-11-21T16:57:48;7.20;99.90
11577;DHT22;5844;51.496;6.788;2022-11-21T17:00:13;7.20;99.90
11577;DHT22;5844;51.496;6.788;2022-11-21T17:02:39;7.10;99.90
11577;DHT22;5844;51.496;6.788;2022-11-21T17:05:05;7.10;99.90
11577;DHT22;5844;51.496;6.788;2022-11-21T17:07:32;7.10;99.90
11577;DHT22;5844;51.496;6.788;2022-11-21T17:09:57;7.10;99.90
11577;DHT22;5844;51.496;6.788;2022-11-21T17:12:23;7.10;99.90
11577;DHT22;5844;51.496;6.788;2022-11-21T17:14:49;7.10;99.90
11577;DHT22;5844;51.496;6.788;2022-11-21T17:17:15;7.50;99.90
11577;DHT22;5844;51.496;6.788;2022-11-21T17:19:41;7.30;99.90
11577;DHT22;5844;51.496;6.788;2022-11-21T17:22:07;7.10;99.90
11577;DHT22;5844;51.496;6.788;2022-11-21T17:24:32;7.10;99.90
11577;DHT22;5844;51.496;6.788;2022-11-21T17:26:58;7.20;99.90
11577;DHT22;5844;51.496;6.788;2022-11-21T17:29:26;7.20;99.90
11577;DHT22;5844;51.496;6.788;2022-11-21T17:31:51;7.30;99.90
11577;DHT22;5844;51.496;6.788;2022-11-21T17:34:17;7.30;99.90
11577;DHT22;5844;51.496;6.788;2022-11-21T17:36:43;7.30;99.90
11577;DHT22;5844;51.496;6.788;2022-11-21T17:39:08;7.30;99.90
11577;DHT22;5844;51.496;6.788;2022-11-21T17:41:34;7.30;99.90
11577;DHT22;5844;51.496;6.788;2022-11-21T17:44:00;7.30;99.90
11577;DHT22;5844;51.496;6.788;2022-11-21T17:46:26;7.30;99.90
11577;DHT22;5844;51.496;6.788;2022-11-21T17:48:54;7.40;99.90
11577;DHT22;5844;51.496;6.788;2022-11-21T17:51:28;7.30;99.90
11577;DHT22;5844;51.496;6.788;2022-11-21T17:53:55;7.20;99.90
11577;DHT22;5844;51.496;6.788;2022-11-21T17:56:23;7.20;99.90
11577;DHT22;5844;51.496;6.788;2022-11-21T17:58:50;7.20;99.90
11577;DHT22;5844;51.496;6.788;2022-11-21T18:01:16;7.20;99.90
11577;DHT22;5844;51.496;6.788;2022-11-21T18:03:59;7.20;99.90
11577;DHT22;5844;51.496;6.788;2022-11-21T18:06:33;7.20;99.90
11577;DHT22;5844;51.496;6.788;2022-11-21T18:08:59;7.20;99.90
11577;DHT22;5844;51.496;6.788;2022-11-21T18:11:29;7.20;99.90
11577;DHT22;5844;51.496;6.788;2022-11-21T18:13:55;7.20;99.90
11577;DHT22;5844;51.496;6.788;2022-11-21T18:16:24;7.20;99.90
11577;DHT22;5844;51.496;6.788;2022-11-21T18:18:50;7.20;99.90
11577;DHT22;5844;51.496;6.788;2022-11-21T18:23:45;7.20;99.90
11577;DHT22;5844;51.496;6.788;2022-11-21T18:26:13;7.20;99.90
11577;DHT22;5844;51.496;6.788;2022-11-21T18:28:40;7.20;99.90
11577;DHT22;5844;51.496;6.788;2022-11-21T18:31:14;7.10;99.90
11577;DHT22;5844;51.496;6.788;2022-11-21T18:33:40;7.10;99.90
11577;DHT22;5844;51.496;6.788;2022-11-21T18:36:08;7.20;99.90
11577;DHT22;5844;51.496;6.788;2022-11-21T18:38:39;7.20;99.90
11577;DHT22;5844;51.496;6.788;2022-11-21T18:41:13;7.30;99.90
11577;DHT22;5844;51.496;6.788;2022-11-21T18:43:40;7.30;99.90
11577;DHT22;5844;51.496;6.788;2022-11-21T18:46:09;7.30;99.90
11577;DHT22;5844;51.496;6.788;2022-11-21T18:48:35;7.30;99.90
11577;DHT22;5844;51.496;6.788;2022-11-21T18:51:06;7.50;99.90
11577;DHT22;5844;51.496;6.788;2022-11-21T18:53:33;7.30;99.90
11577;DHT22;5844;51.496;6.788;2022-11-21T18:56:06;7.40;99.90
11577;DHT22;5844;51.496;6.788;2022-11-21T18:58:33;7.40;99.90
11577;DHT22;5844;51.496;6.788;2022-11-21T19:01:04;7.40;99.90